KUAO

Details ICAO KUAO
Name AURORA STATE
Region United States
Timezone America/Los_Angeles (UTC-7.0)
Plans Departing 34
Arriving 9
Stats Elevation 200 ft / 61 m (AMSL)
Location 45.247129° -122.770038°
Runways 1
Magnetic Variation 15.187° E
Sunrise 2018-05-23 12:34:32 UTC / 2018-05-23 05:34:32 Local
Sunset 2018-05-24 03:44:03 UTC / 2018-05-23 20:44:03 Local
Advertisement - Login to hide

Runways

ID Width Length Bearing (true) Bearing (mag) Surface Threshold Offset Overrun Length
17 98 ft / 30 m 5,008 ft / 1,526 m 187.12° 171.93° Asphalt 0 ft / 0 m 0 ft / 0 m
35 98 ft / 30 m 5,008 ft / 1,526 m 7.11° 351.92° Asphalt 0 ft / 0 m 151 ft / 46 m

Approach Navaids

Runway Type Ident Frequency Range Bearing (true) Bearing (mag) Slope Elevation
17 Localiser IUAO 111.15 MHz 18 nm / 33 km 187.14° 171.95° - 195 ft / 59 m (AMSL)
17 DME IUAO 111.15 MHz 18 nm / 33 km - - - 205 ft / 62 m (AMSL)

Map

Weather


0- 5 10 15 20 25 30 35+ Temperature / ° C

Clouds and Precipitation
Forecast for 2018-05-23 12:00 UTC. Updated 37 minutes ago

Ground ~20,000 ft ~40,000 ft Winds

METAR

KUAO 231053Z AUTO 00000KT 10SM CLR 14/12 A2981 RMK AO2 SLP091 T01390122

TAF

KUAO 230520Z 2306/2406 01005KT P6SM SKC FM231500 VRB03KT P6SM BKN015

Frequencies

Recorded 118.52 MHz ASOS
Clearance 119.95 MHz PORTLAND CLNC DEL
Unicom 122.70 MHz CTAF/UNICOM
Approach 126.00 MHz PORTLAND APP/DEP
Warning: Do not use this data for real-world aviation or navigation. No guarantee of current accuracy is given.